sensor_id;sensor_type;location;lat;lon;timestamp;pressure;altitude;pressure_sealevel;temperature;humidity
12793;BME280;6460;42.684;23.260;2023-05-07T00:01:27;94799.66;;;12.53;86.85
12793;BME280;6460;42.684;23.260;2023-05-07T00:03:54;94800.53;;;12.61;86.93
12793;BME280;6460;42.684;23.260;2023-05-07T00:06:20;94796.75;;;12.65;86.48
12793;BME280;6460;42.684;23.260;2023-05-07T00:08:49;94788.41;;;12.74;86.55
12793;BME280;6460;42.684;23.260;2023-05-07T00:11:16;94792.28;;;12.77;86.14
12793;BME280;6460;42.684;23.260;2023-05-07T00:13:43;94794.34;;;12.60;86.06
12793;BME280;6460;42.684;23.260;2023-05-07T00:16:10;94792.44;;;12.61;86.26
12793;BME280;6460;42.684;23.260;2023-05-07T00:18:36;94791.78;;;12.67;85.89
12793;BME280;6460;42.684;23.260;2023-05-07T00:21:03;94787.63;;;12.73;85.30
12793;BME280;6460;42.684;23.260;2023-05-07T00:23:30;94787.09;;;12.38;87.57
12793;BME280;6460;42.684;23.260;2023-05-07T00:25:58;94778.25;;;12.15;88.91
12793;BME280;6460;42.684;23.260;2023-05-07T00:28:25;94788.72;;;11.97;89.54
12793;BME280;6460;42.684;23.260;2023-05-07T00:30:52;94785.31;;;12.23;88.69
12793;BME280;6460;42.684;23.260;2023-05-07T00:33:19;94787.22;;;12.23;88.60
12793;BME280;6460;42.684;23.260;2023-05-07T00:35:46;94786.63;;;12.10;89.59
12793;BME280;6460;42.684;23.260;2023-05-07T00:38:13;94779.50;;;12.21;88.98
12793;BME280;6460;42.684;23.260;2023-05-07T00:40:40;94789.31;;;12.33;88.07
12793;BME280;6460;42.684;23.260;2023-05-07T00:43:08;94785.53;;;12.37;87.33
12793;BME280;6460;42.684;23.260;2023-05-07T00:45:35;94793.97;;;12.36;87.65
12793;BME280;6460;42.684;23.260;2023-05-07T00:48:02;94785.84;;;12.32;87.78
12793;BME280;6460;42.684;23.260;2023-05-07T00:50:31;94794.53;;;12.22;87.40
12793;BME280;6460;42.684;23.260;2023-05-07T00:52:59;94797.94;;;12.19;88.14
12793;BME280;6460;42.684;23.260;2023-05-07T00:55:26;94794.34;;;12.11;88.07
12793;BME280;6460;42.684;23.260;2023-05-07T00:57:53;94794.28;;;12.08;88.60
12793;BME280;6460;42.684;23.260;2023-05-07T01:00:21;94793.50;;;11.85;89.21
12793;BME280;6460;42.684;23.260;2023-05-07T01:02:50;94788.91;;;12.08;89.03
12793;BME280;6460;42.684;23.260;2023-05-07T01:05:18;94786.13;;;11.82;89.10
12793;BME280;6460;42.684;23.260;2023-05-07T01:07:47;94790.00;;;11.84;90.19
12793;BME280;6460;42.684;23.260;2023-05-07T01:10:15;94791.38;;;11.36;92.54
12793;BME280;6460;42.684;23.260;2023-05-07T01:12:43;94801.38;;;11.17;93.17
12793;BME280;6460;42.684;23.260;2023-05-07T01:15:11;94789.84;;;11.35;92.99
12793;BME280;6460;42.684;23.260;2023-05-07T01:17:40;94803.00;;;11.21;92.72
12793;BME280;6460;42.684;23.260;2023-05-07T01:20:08;94801.50;;;11.24;93.33
12793;BME280;6460;42.684;23.260;2023-05-07T01:22:38;94803.00;;;11.21;93.09
12793;BME280;6460;42.684;23.260;2023-05-07T01:25:06;94804.78;;;11.13;93.32
12793;BME280;6460;42.684;23.260;2023-05-07T01:27:41;94802.50;;;11.35;92.56
12793;BME280;6460;42.684;23.260;2023-05-07T01:30:09;94803.50;;;11.27;91.45
12793;BME280;6460;42.684;23.260;2023-05-07T01:32:40;94797.75;;;11.28;91.07
12793;BME280;6460;42.684;23.260;2023-05-07T01:35:11;94811.16;;;10.39;95.37
12793;BME280;6460;42.684;23.260;2023-05-07T01:37:40;94799.78;;;10.61;94.74
12793;BME280;6460;42.684;23.260;2023-05-07T01:40:08;94801.19;;;10.55;94.52
12793;BME280;6460;42.684;23.260;2023-05-07T01:42:35;94787.59;;;10.01;97.64
12793;BME280;6460;42.684;23.260;2023-05-07T01:45:03;94784.47;;;10.31;97.64
12793;BME280;6460;42.684;23.260;2023-05-07T01:47:30;94786.59;;;10.56;96.72
12793;BME280;6460;42.684;23.260;2023-05-07T01:49:57;94787.16;;;10.46;96.61
12793;BME280;6460;42.684;23.260;2023-05-07T01:52:24;94783.13;;;10.72;94.77
12793;BME280;6460;42.684;23.260;2023-05-07T01:54:53;94780.84;;;10.74;95.25
12793;BME280;6460;42.684;23.260;2023-05-07T01:57:19;94776.19;;;10.71;95.47
12793;BME280;6460;42.684;23.260;2023-05-07T01:59:46;94772.22;;;10.65;96.47
12793;BME280;6460;42.684;23.260;2023-05-07T02:02:13;94773.72;;;10.46;97.22
12793;BME280;6460;42.684;23.260;2023-05-07T02:04:40;94770.03;;;10.20;98.45
12793;BME280;6460;42.684;23.260;2023-05-07T02:07:07;94767.59;;;10.30;99.42
12793;BME280;6460;42.684;23.260;2023-05-07T02:09:34;94763.66;;;10.59;99.06
12793;BME280;6460;42.684;23.260;2023-05-07T02:12:03;94763.38;;;10.64;98.93
12793;BME280;6460;42.684;23.260;2023-05-07T02:14:29;94757.00;;;10.72;98.23
12793;BME280;6460;42.684;23.260;2023-05-07T02:16:56;94757.78;;;10.73;97.54
12793;BME280;6460;42.684;23.260;2023-05-07T02:19:23;94751.88;;;10.83;97.55
12793;BME280;6460;42.684;23.260;2023-05-07T02:21:51;94765.75;;;10.85;96.74
12793;BME280;6460;42.684;23.260;2023-05-07T02:24:18;94761.94;;;11.05;96.17
12793;BME280;6460;42.684;23.260;2023-05-07T02:26:45;94763.91;;;10.89;95.83
12793;BME280;6460;42.684;23.260;2023-05-07T02:29:13;94765.03;;;10.88;95.93
12793;BME280;6460;42.684;23.260;2023-05-07T02:31:40;94768.94;;;11.09;95.00
12793;BME280;6460;42.684;23.260;2023-05-07T02:34:07;94762.56;;;10.29;96.73
12793;BME280;6460;42.684;23.260;2023-05-07T02:36:34;94769.22;;;10.35;97.26
12793;BME280;6460;42.684;23.260;2023-05-07T02:39:00;94763.84;;;10.35;97.64
12793;BME280;6460;42.684;23.260;2023-05-07T02:41:28;94760.47;;;10.38;99.05
12793;BME280;6460;42.684;23.260;2023-05-07T02:43:54;94758.97;;;10.40;99.00
12793;BME280;6460;42.684;23.260;2023-05-07T02:46:23;94763.16;;;10.38;99.60
12793;BME280;6460;42.684;23.260;2023-05-07T02:48:49;94766.03;;;10.29;99.61
12793;BME280;6460;42.684;23.260;2023-05-07T02:51:19;94765.41;;;10.36;100.00
12793;BME280;6460;42.684;23.260;2023-05-07T02:53:46;94767.59;;;10.30;99.91
12793;BME280;6460;42.684;23.260;2023-05-07T02:56:14;94761.53;;;10.33;100.00
12793;BME280;6460;42.684;23.260;2023-05-07T02:58:41;94766.81;;;10.30;100.00
12793;BME280;6460;42.684;23.260;2023-05-07T03:01:08;94762.38;;;10.37;100.00
12793;BME280;6460;42.684;23.260;2023-05-07T03:03:36;94777.38;;;10.38;100.00
12793;BME280;6460;42.684;23.260;2023-05-07T03:06:04;94773.28;;;10.44;100.00
12793;BME280;6460;42.684;23.260;2023-05-07T03:08:32;94776.66;;;9.94;100.00
12793;BME280;6460;42.684;23.260;2023-05-07T03:10:58;94782.22;;;9.86;100.00
12793;BME280;6460;42.684;23.260;2023-05-07T03:13:25;94779.59;;;9.89;100.00
12793;BME280;6460;42.684;23.260;2023-05-07T03:19:51;94788.63;;;10.13;99.07
12793;BME280;6460;42.684;23.260;2023-05-07T03:26:01;94785.31;;;10.03;100.00
12793;BME280;6460;42.684;23.260;2023-05-07T03:31:51;94792.34;;;10.08;100.00
12793;BME280;6460;42.684;23.260;2023-05-07T03:37:41;94797.47;;;10.29;99.18
12793;BME280;6460;42.684;23.260;2023-05-07T03:43:14;94796.88;;;10.20;100.00
12793;BME280;6460;42.684;23.260;2023-05-07T03:45:41;94797.44;;;10.13;100.00
12793;BME280;6460;42.684;23.260;2023-05-07T03:48:16;94805.03;;;10.23;100.00
12793;BME280;6460;42.684;23.260;2023-05-07T03:50:43;94805.34;;;10.37;100.00
12793;BME280;6460;42.684;23.260;2023-05-07T03:53:11;94804.41;;;10.45;100.00
12793;BME280;6460;42.684;23.260;2023-05-07T03:58:56;94800.09;;;10.76;98.43
12793;BME280;6460;42.684;23.260;2023-05-07T04:01:23;94808.78;;;10.85;97.47
12793;BME280;6460;42.684;23.260;2023-05-07T04:03:50;94811.34;;;10.97;95.89
12793;BME280;6460;42.684;23.260;2023-05-07T04:06:17;94820.28;;;10.85;96.61
12793;BME280;6460;42.684;23.260;2023-05-07T04:08:45;94826.59;;;10.93;96.24
12793;BME280;6460;42.684;23.260;2023-05-07T04:11:12;94826.19;;;10.91;95.69
12793;BME280;6460;42.684;23.260;2023-05-07T04:13:38;94832.84;;;10.97;95.65
12793;BME280;6460;42.684;23.260;2023-05-07T04:16:06;94840.28;;;11.03;95.57
12793;BME280;6460;42.684;23.260;2023-05-07T04:18:33;94842.50;;;11.17;95.75
12793;BME280;6460;42.684;23.260;2023-05-07T04:21:00;94847.41;;;11.31;94.67
12793;BME280;6460;42.684;23.260;2023-05-07T04:23:26;94844.38;;;11.32;93.62
12793;BME280;6460;42.684;23.260;2023-05-07T04:25:55;94850.50;;;11.33;94.76
12793;BME280;6460;42.684;23.260;2023-05-07T04:28:23;94851.09;;;11.42;94.41
12793;BME280;6460;42.684;23.260;2023-05-07T04:30:51;94853.16;;;11.48;93.69
12793;BME280;6460;42.684;23.260;2023-05-07T04:33:17;94861.25;;;11.33;94.00
12793;BME280;6460;42.684;23.260;2023-05-07T04:35:44;94858.03;;;11.43;93.76
12793;BME280;6460;42.684;23.260;2023-05-07T04:38:36;94866.03;;;11.39;94.14
12793;BME280;6460;42.684;23.260;2023-05-07T04:41:19;94868.13;;;11.30;94.72
12793;BME280;6460;42.684;23.260;2023-05-07T04:43:46;94862.34;;;11.28;95.98
12793;BME280;6460;42.684;23.260;2023-05-07T04:46:13;94865.09;;;11.32;96.18
12793;BME280;6460;42.684;23.260;2023-05-07T04:48:47;94863.97;;;11.52;95.31
12793;BME280;6460;42.684;23.260;2023-05-07T04:54:54;94862.13;;;11.56;96.59
12793;BME280;6460;42.684;23.260;2023-05-07T04:57:24;94855.28;;;11.78;96.07
12793;BME280;6460;42.684;23.260;2023-05-07T04:59:51;94853.88;;;11.84;94.17
12793;BME280;6460;42.684;23.260;2023-05-07T05:02:18;94863.56;;;11.69;94.75
12793;BME280;6460;42.684;23.260;2023-05-07T05:04:55;94855.44;;;11.85;95.21
12793;BME280;6460;42.684;23.260;2023-05-07T05:07:22;94858.09;;;12.04;95.35
12793;BME280;6460;42.684;23.260;2023-05-07T05:09:49;94854.88;;;12.17;93.43
12793;BME280;6460;42.684;23.260;2023-05-07T05:12:16;94856.63;;;12.29;92.95
12793;BME280;6460;42.684;23.260;2023-05-07T05:14:44;94855.81;;;12.25;92.82
12793;BME280;6460;42.684;23.260;2023-05-07T05:17:11;94848.00;;;12.43;92.53
12793;BME280;6460;42.684;23.260;2023-05-07T05:22:59;94846.75;;;12.59;93.20
12793;BME280;6460;42.684;23.260;2023-05-07T05:25:26;94846.97;;;12.73;92.25
12793;BME280;6460;42.684;23.260;2023-05-07T05:27:53;94852.69;;;12.95;92.13
12793;BME280;6460;42.684;23.260;2023-05-07T05:30:22;94854.34;;;13.03;91.01
12793;BME280;6460;42.684;23.260;2023-05-07T05:32:48;94855.59;;;13.09;89.64
12793;BME280;6460;42.684;23.260;2023-05-07T05:35:16;94856.31;;;13.06;89.06
12793;BME280;6460;42.684;23.260;2023-05-07T05:37:43;94855.38;;;13.17;89.33
12793;BME280;6460;42.684;23.260;2023-05-07T05:40:10;94863.25;;;13.30;88.53
12793;BME280;6460;42.684;23.260;2023-05-07T05:42:37;94864.97;;;13.45;88.97
12793;BME280;6460;42.684;23.260;2023-05-07T05:45:05;94863.69;;;13.65;87.35
12793;BME280;6460;42.684;23.260;2023-05-07T05:47:33;94863.91;;;13.83;86.21
12793;BME280;6460;42.684;23.260;2023-05-07T05:50:00;94864.00;;;13.90;86.87
12793;BME280;6460;42.684;23.260;2023-05-07T05:52:27;94853.75;;;14.06;86.05
12793;BME280;6460;42.684;23.260;2023-05-07T05:54:55;94861.19;;;13.83;86.08
12793;BME280;6460;42.684;23.260;2023-05-07T05:57:22;94861.69;;;13.92;86.32
12793;BME280;6460;42.684;23.260;2023-05-07T06:00:10;94864.38;;;14.25;86.01
12793;BME280;6460;42.684;23.260;2023-05-07T06:02:39;94864.56;;;14.43;82.66
12793;BME280;6460;42.684;23.260;2023-05-07T06:05:07;94863.81;;;14.42;82.70
12793;BME280;6460;42.684;23.260;2023-05-07T06:07:34;94861.63;;;14.58;82.29
12793;BME280;6460;42.684;23.260;2023-05-07T06:10:01;94857.34;;;14.54;81.17
12793;BME280;6460;42.684;23.260;2023-05-07T06:15:49;94862.88;;;14.71;80.76
12793;BME280;6460;42.684;23.260;2023-05-07T06:18:18;94869.00;;;15.09;78.74
12793;BME280;6460;42.684;23.260;2023-05-07T06:20:45;94858.25;;;15.23;78.98
12793;BME280;6460;42.684;23.260;2023-05-07T06:23:23;94861.00;;;15.30;78.87
12793;BME280;6460;42.684;23.260;2023-05-07T06:25:50;94860.41;;;15.58;75.27
12793;BME280;6460;42.684;23.260;2023-05-07T06:28:20;94859.69;;;15.71;74.65
12793;BME280;6460;42.684;23.260;2023-05-07T06:30:49;94852.75;;;15.77;74.79
12793;BME280;6460;42.684;23.260;2023-05-07T06:33:18;94848.94;;;16.00;74.85
12793;BME280;6460;42.684;23.260;2023-05-07T06:35:45;94839.34;;;16.20;74.10
12793;BME280;6460;42.684;23.260;2023-05-07T06:38:14;94847.13;;;16.42;72.96
12793;BME280;6460;42.684;23.260;2023-05-07T06:40:42;94841.75;;;16.64;71.14
12793;BME280;6460;42.684;23.260;2023-05-07T06:43:12;94831.69;;;16.75;69.71
12793;BME280;6460;42.684;23.260;2023-05-07T06:45:42;94830.88;;;16.85;69.68
12793;BME280;6460;42.684;23.260;2023-05-07T06:48:29;94823.88;;;16.98;70.03
12793;BME280;6460;42.684;23.260;2023-05-07T06:50:56;94814.94;;;17.19;75.03
12793;BME280;6460;42.684;23.260;2023-05-07T06:53:23;94824.59;;;17.41;68.51
12793;BME280;6460;42.684;23.260;2023-05-07T06:55:51;94823.03;;;17.47;67.03
12793;BME280;6460;42.684;23.260;2023-05-07T06:58:19;94827.63;;;17.68;67.49
12793;BME280;6460;42.684;23.260;2023-05-07T07:00:46;94824.50;;;17.76;65.49
12793;BME280;6460;42.684;23.260;2023-05-07T07:03:19;94824.28;;;18.19;65.08
12793;BME280;6460;42.684;23.260;2023-05-07T07:05:51;94831.91;;;18.52;63.48
12793;BME280;6460;42.684;23.260;2023-05-07T07:08:21;94818.63;;;18.58;62.99
12793;BME280;6460;42.684;23.260;2023-05-07T07:10:48;94823.34;;;18.46;62.51
12793;BME280;6460;42.684;23.260;2023-05-07T07:13:15;94829.31;;;18.24;63.44
12793;BME280;6460;42.684;23.260;2023-05-07T07:15:44;94826.47;;;18.45;63.02
12793;BME280;6460;42.684;23.260;2023-05-07T07:18:13;94823.00;;;18.92;61.71
12793;BME280;6460;42.684;23.260;2023-05-07T07:20:40;94814.50;;;18.87;60.78
12793;BME280;6460;42.684;23.260;2023-05-07T07:23:14;94815.63;;;19.34;58.99
12793;BME280;6460;42.684;23.260;2023-05-07T07:25:43;94813.56;;;19.08;59.71
12793;BME280;6460;42.684;23.260;2023-05-07T07:28:10;94814.44;;;18.97;60.71
12793;BME280;6460;42.684;23.260;2023-05-07T07:30:38;94810.38;;;18.68;61.65
12793;BME280;6460;42.684;23.260;2023-05-07T07:33:06;94810.31;;;19.20;59.66
12793;BME280;6460;42.684;23.260;2023-05-07T07:35:35;94817.53;;;18.96;61.04
12793;BME280;6460;42.684;23.260;2023-05-07T07:38:03;94816.94;;;18.74;62.56
12793;BME280;6460;42.684;23.260;2023-05-07T07:40:33;94812.63;;;19.62;60.83
12793;BME280;6460;42.684;23.260;2023-05-07T07:43:01;94813.50;;;19.86;60.81
12793;BME280;6460;42.684;23.260;2023-05-07T07:45:28;94813.56;;;20.13;60.02
12793;BME280;6460;42.684;23.260;2023-05-07T07:47:56;94822.31;;;20.31;58.09
12793;BME280;6460;42.684;23.260;2023-05-07T07:50:36;94823.28;;;20.14;58.03
12793;BME280;6460;42.684;23.260;2023-05-07T07:53:04;94821.69;;;20.73;57.92
12793;BME280;6460;42.684;23.260;2023-05-07T07:55:38;94809.63;;;20.94;56.38
12793;BME280;6460;42.684;23.260;2023-05-07T07:58:06;94808.09;;;21.16;56.58
12793;BME280;6460;42.684;23.260;2023-05-07T08:00:33;94810.53;;;21.34;57.08
12793;BME280;6460;42.684;23.260;2023-05-07T08:03:01;94800.91;;;21.26;56.72
12793;BME280;6460;42.684;23.260;2023-05-07T08:05:29;94809.56;;;20.97;56.24
12793;BME280;6460;42.684;23.260;2023-05-07T08:07:58;94807.44;;;20.85;56.30
12793;BME280;6460;42.684;23.260;2023-05-07T08:10:25;94804.41;;;20.80;55.69
12793;BME280;6460;42.684;23.260;2023-05-07T08:12:55;94799.41;;;20.98;55.72
12793;BME280;6460;42.684;23.260;2023-05-07T08:15:22;94799.84;;;21.20;54.99
12793;BME280;6460;42.684;23.260;2023-05-07T08:17:52;94801.91;;;21.35;54.85
12793;BME280;6460;42.684;23.260;2023-05-07T08:20:20;94802.09;;;21.68;53.23
12793;BME280;6460;42.684;23.260;2023-05-07T08:22:47;94797.81;;;22.06;52.67
12793;BME280;6460;42.684;23.260;2023-05-07T08:25:14;94791.75;;;22.14;51.50
12793;BME280;6460;42.684;23.260;2023-05-07T08:27:42;94790.81;;;22.21;49.63
12793;BME280;6460;42.684;23.260;2023-05-07T08:30:13;94787.59;;;22.26;48.90
12793;BME280;6460;42.684;23.260;2023-05-07T08:32:40;94785.31;;;22.57;48.39
12793;BME280;6460;42.684;23.260;2023-05-07T08:35:08;94777.13;;;22.21;49.55
12793;BME280;6460;42.684;23.260;2023-05-07T08:37:36;94780.94;;;22.27;49.47
12793;BME280;6460;42.684;23.260;2023-05-07T08:40:04;94785.13;;;22.67;48.27
12793;BME280;6460;42.684;23.260;2023-05-07T08:42:35;94770.84;;;23.21;46.29
12793;BME280;6460;42.684;23.260;2023-05-07T08:45:03;94780.03;;;23.14;45.75
12793;BME280;6460;42.684;23.260;2023-05-07T08:47:40;94779.25;;;23.59;45.89
12793;BME280;6460;42.684;23.260;2023-05-07T08:50:10;94761.13;;;23.90;44.09
12793;BME280;6460;42.684;23.260;2023-05-07T08:52:37;94771.47;;;23.12;47.96
12793;BME280;6460;42.684;23.260;2023-05-07T08:55:05;94761.03;;;22.43;48.46
12793;BME280;6460;42.684;23.260;2023-05-07T08:57:33;94764.41;;;23.28;47.53
12793;BME280;6460;42.684;23.260;2023-05-07T09:00:00;94760.50;;;23.57;47.25
12793;BME280;6460;42.684;23.260;2023-05-07T09:02:27;94758.81;;;23.76;46.03
12793;BME280;6460;42.684;23.260;2023-05-07T09:04:55;94760.94;;;23.97;42.66
12793;BME280;6460;42.684;23.260;2023-05-07T09:07:24;94756.56;;;23.71;42.39
12793;BME280;6460;42.684;23.260;2023-05-07T09:09:51;94755.53;;;23.94;42.37
12793;BME280;6460;42.684;23.260;2023-05-07T09:12:22;94745.41;;;23.78;41.96
12793;BME280;6460;42.684;23.260;2023-05-07T09:14:49;94746.47;;;23.68;43.00
12793;BME280;6460;42.684;23.260;2023-05-07T09:17:16;94744.19;;;24.46;40.89
12793;BME280;6460;42.684;23.260;2023-05-07T09:19:44;94744.28;;;24.30;43.27
12793;BME280;6460;42.684;23.260;2023-05-07T09:22:13;94745.63;;;24.50;43.11
12793;BME280;6460;42.684;23.260;2023-05-07T09:24:47;94741.09;;;24.69;41.63
12793;BME280;6460;42.684;23.260;2023-05-07T09:27:15;94749.00;;;24.42;41.47
12793;BME280;6460;42.684;23.260;2023-05-07T09:29:43;94738.88;;;24.89;39.88
12793;BME280;6460;42.684;23.260;2023-05-07T09:32:10;94737.13;;;24.70;39.04
12793;BME280;6460;42.684;23.260;2023-05-07T09:34:37;94734.97;;;24.40;39.43
12793;BME280;6460;42.684;23.260;2023-05-07T09:37:06;94740.13;;;24.38;39.24
12793;BME280;6460;42.684;23.260;2023-05-07T09:39:41;94734.19;;;24.14;39.63
12793;BME280;6460;42.684;23.260;2023-05-07T09:42:08;94731.00;;;24.66;38.53
12793;BME280;6460;42.684;23.260;2023-05-07T09:44:37;94730.56;;;23.76;39.38
12793;BME280;6460;42.684;23.260;2023-05-07T09:47:05;94735.28;;;24.16;39.92
12793;BME280;6460;42.684;23.260;2023-05-07T09:49:34;94735.63;;;24.18;38.83
12793;BME280;6460;42.684;23.260;2023-05-07T09:52:03;94726.25;;;24.16;38.82
12793;BME280;6460;42.684;23.260;2023-05-07T09:54:32;94724.03;;;23.44;40.19
12793;BME280;6460;42.684;23.260;2023-05-07T09:57:01;94726.63;;;22.90;41.73
12793;BME280;6460;42.684;23.260;2023-05-07T09:59:31;94724.06;;;24.23;39.03
12793;BME280;6460;42.684;23.260;2023-05-07T10:01:59;94707.66;;;24.58;36.42
12793;BME280;6460;42.684;23.260;2023-05-07T10:04:27;94715.69;;;24.65;37.27
12793;BME280;6460;42.684;23.260;2023-05-07T10:06:55;94727.03;;;24.16;37.01
12793;BME280;6460;42.684;23.260;2023-05-07T10:09:23;94716.47;;;24.02;35.76
12793;BME280;6460;42.684;23.260;2023-05-07T10:11:51;94726.50;;;24.47;34.77
12793;BME280;6460;42.684;23.260;2023-05-07T10:14:21;94714.06;;;24.55;34.85
12793;BME280;6460;42.684;23.260;2023-05-07T10:16:48;94720.03;;;23.74;35.95
12793;BME280;6460;42.684;23.260;2023-05-07T10:19:16;94716.41;;;24.31;34.95
12793;BME280;6460;42.684;23.260;2023-05-07T10:21:48;94706.94;;;24.19;36.84
12793;BME280;6460;42.684;23.260;2023-05-07T10:24:21;94697.63;;;24.76;34.88
12793;BME280;6460;42.684;23.260;2023-05-07T10:26:50;94693.31;;;25.01;33.66
12793;BME280;6460;42.684;23.260;2023-05-07T10:29:25;94693.03;;;25.42;33.13
12793;BME280;6460;42.684;23.260;2023-05-07T10:31:58;94683.53;;;25.56;32.37
12793;BME280;6460;42.684;23.260;2023-05-07T10:34:29;94682.09;;;25.30;32.26
12793;BME280;6460;42.684;23.260;2023-05-07T10:36:59;94682.69;;;25.68;31.57
12793;BME280;6460;42.684;23.260;2023-05-07T10:39:29;94677.53;;;25.79;31.33
12793;BME280;6460;42.684;23.260;2023-05-07T10:41:57;94685.09;;;25.44;29.69
12793;BME280;6460;42.684;23.260;2023-05-07T10:44:29;94677.16;;;25.46;29.32
12793;BME280;6460;42.684;23.260;2023-05-07T10:47:04;94682.69;;;25.12;29.22
12793;BME280;6460;42.684;23.260;2023-05-07T10:49:34;94679.09;;;25.37;29.92
12793;BME280;6460;42.684;23.260;2023-05-07T10:52:15;94671.53;;;25.50;30.53
12793;BME280;6460;42.684;23.260;2023-05-07T10:54:42;94676.19;;;25.84;29.68
12793;BME280;6460;42.684;23.260;2023-05-07T10:57:34;94672.53;;;26.17;29.52
12793;BME280;6460;42.684;23.260;2023-05-07T11:00:42;94664.41;;;26.54;28.88
12793;BME280;6460;42.684;23.260;2023-05-07T11:03:10;94662.56;;;26.60;29.08
12793;BME280;6460;42.684;23.260;2023-05-07T11:05:37;94672.16;;;26.86;28.70
12793;BME280;6460;42.684;23.260;2023-05-07T11:08:07;94674.25;;;25.93;27.21
12793;BME280;6460;42.684;23.260;2023-05-07T11:10:52;94671.09;;;26.35;28.63
12793;BME280;6460;42.684;23.260;2023-05-07T11:13:42;94655.41;;;26.80;27.06
12793;BME280;6460;42.684;23.260;2023-05-07T11:16:21;94661.13;;;27.13;27.91
12793;BME280;6460;42.684;23.260;2023-05-07T11:18:49;94656.03;;;27.75;28.32
12793;BME280;6460;42.684;23.260;2023-05-07T11:21:33;94655.28;;;26.93;28.07
12793;BME280;6460;42.684;23.260;2023-05-07T11:24:04;94647.75;;;26.17;28.59
12793;BME280;6460;42.684;23.260;2023-05-07T11:26:47;94656.22;;;27.54;26.86
12793;BME280;6460;42.684;23.260;2023-05-07T11:29:16;94642.41;;;27.26;26.58
12793;BME280;6460;42.684;23.260;2023-05-07T11:31:48;94643.50;;;27.56;27.82
12793;BME280;6460;42.684;23.260;2023-05-07T11:34:15;94643.31;;;26.87;27.28
12793;BME280;6460;42.684;23.260;2023-05-07T11:36:47;94644.84;;;26.79;27.36
12793;BME280;6460;42.684;23.260;2023-05-07T11:39:24;94644.69;;;26.73;27.06
12793;BME280;6460;42.684;23.260;2023-05-07T11:41:51;94639.88;;;26.56;28.64
12793;BME280;6460;42.684;23.260;2023-05-07T11:44:18;94642.72;;;26.83;27.41
12793;BME280;6460;42.684;23.260;2023-05-07T11:46:46;94643.03;;;27.12;27.26
12793;BME280;6460;42.684;23.260;2023-05-07T11:49:13;94633.69;;;27.10;28.08
12793;BME280;6460;42.684;23.260;2023-05-07T11:51:40;94639.47;;;26.75;27.06
12793;BME280;6460;42.684;23.260;2023-05-07T11:54:08;94638.44;;;27.27;26.69
12793;BME280;6460;42.684;23.260;2023-05-07T11:56:37;94639.22;;;28.06;26.96
12793;BME280;6460;42.684;23.260;2023-05-07T11:59:04;94629.03;;;28.78;25.43
12793;BME280;6460;42.684;23.260;2023-05-07T12:01:31;94631.88;;;29.07;24.07
12793;BME280;6460;42.684;23.260;2023-05-07T12:04:08;94626.28;;;29.16;24.32
12793;BME280;6460;42.684;23.260;2023-05-07T12:06:36;94615.91;;;29.26;24.76
12793;BME280;6460;42.684;23.260;2023-05-07T12:09:04;94612.78;;;29.48;23.19
12793;BME280;6460;42.684;23.260;2023-05-07T12:11:32;94614.31;;;29.10;23.86
12793;BME280;6460;42.684;23.260;2023-05-07T12:14:00;94612.56;;;28.98;23.34
12793;BME280;6460;42.684;23.260;2023-05-07T12:16:30;94604.28;;;28.51;25.77
12793;BME280;6460;42.684;23.260;2023-05-07T12:19:07;94610.91;;;28.44;25.19
12793;BME280;6460;42.684;23.260;2023-05-07T12:21:38;94611.91;;;27.90;27.77
12793;BME280;6460;42.684;23.260;2023-05-07T12:24:09;94594.66;;;28.70;25.34
12793;BME280;6460;42.684;23.260;2023-05-07T12:26:40;94594.75;;;28.99;24.91
12793;BME280;6460;42.684;23.260;2023-05-07T12:29:30;94593.38;;;29.33;25.02
12793;BME280;6460;42.684;23.260;2023-05-07T12:31:57;94594.72;;;29.37;24.70
12793;BME280;6460;42.684;23.260;2023-05-07T12:34:26;94584.13;;;29.51;23.88
12793;BME280;6460;42.684;23.260;2023-05-07T12:36:53;94594.16;;;28.95;24.49
12793;BME280;6460;42.684;23.260;2023-05-07T12:39:22;94584.91;;;28.51;23.92
12793;BME280;6460;42.684;23.260;2023-05-07T12:41:53;94589.28;;;27.68;24.82
12793;BME280;6460;42.684;23.260;2023-05-07T12:44:25;94587.47;;;28.07;24.30
12793;BME280;6460;42.684;23.260;2023-05-07T12:46:55;94569.56;;;28.50;25.91
12793;BME280;6460;42.684;23.260;2023-05-07T12:49:23;94572.81;;;28.72;23.81
12793;BME280;6460;42.684;23.260;2023-05-07T12:51:59;94565.06;;;29.00;24.05
12793;BME280;6460;42.684;23.260;2023-05-07T12:55:28;94553.97;;;28.61;23.49
12793;BME280;6460;42.684;23.260;2023-05-07T12:58:14;94566.25;;;27.71;24.55
12793;BME280;6460;42.684;23.260;2023-05-07T13:00:41;94556.84;;;28.19;24.25
12793;BME280;6460;42.684;23.260;2023-05-07T13:03:09;94565.66;;;27.67;24.26
12793;BME280;6460;42.684;23.260;2023-05-07T13:05:38;94565.81;;;27.63;24.56
12793;BME280;6460;42.684;23.260;2023-05-07T13:11:38;94540.97;;;28.76;24.17
12793;BME280;6460;42.684;23.260;2023-05-07T13:14:11;94553.22;;;28.04;24.62
12793;BME280;6460;42.684;23.260;2023-05-07T13:16:38;94553.50;;;29.01;23.71
12793;BME280;6460;42.684;23.260;2023-05-07T13:19:08;94555.88;;;29.32;23.21
12793;BME280;6460;42.684;23.260;2023-05-07T13:21:41;94541.91;;;29.56;24.58
12793;BME280;6460;42.684;23.260;2023-05-07T13:24:08;94534.28;;;29.51;24.63
12793;BME280;6460;42.684;23.260;2023-05-07T13:26:38;94538.50;;;29.31;23.80
12793;BME280;6460;42.684;23.260;2023-05-07T13:29:05;94533.41;;;29.30;23.94
12793;BME280;6460;42.684;23.260;2023-05-07T13:31:33;94533.78;;;29.23;24.58
12793;BME280;6460;42.684;23.260;2023-05-07T13:34:01;94527.88;;;29.30;24.52
12793;BME280;6460;42.684;23.260;2023-05-07T13:36:30;94526.03;;;29.12;24.43
12793;BME280;6460;42.684;23.260;2023-05-07T13:39:00;94529.00;;;29.23;24.36
12793;BME280;6460;42.684;23.260;2023-05-07T13:41:31;94534.06;;;28.72;23.58
12793;BME280;6460;42.684;23.260;2023-05-07T13:44:08;94526.72;;;28.69;24.11
12793;BME280;6460;42.684;23.260;2023-05-07T13:46:35;94535.94;;;29.04;23.28